SABE/AEP METAR and TAF weather

Enter ICAO airport designator
Station Type Date Time Source
SABE METAR 2019/05/26 02:00 UTC NOAA

SABE 260200Z 35010KT CAVOK 16/12 Q1012 NOSIG


Station Type Date Time Source
SABE Decoded METAR 2019/05/26 02:00 UTC NOAA

Aeroparque Bs. As. Aerodrome, Argentina (SABE) 34-34S 058-25W 6M
May 25, 2019 - 10:00 PM EDT / 2019.05.26 0200 UTC
Wind: from the N (350 degrees) at 12 MPH (10 KT):0
Visibility: greater than 7 mile(s):0
Temperature: 60 F (16 C)
Dew Point: 53 F (12 C)
Relative Humidity: 77%
Pressure (altimeter): 29.88 in. Hg (1012 hPa)
ob: SABE 260200Z 35010KT CAVOK 16/12 Q1012 NOSIG
cycle: 2

Station Type Date Time Source
SABE TAF 2019/05/26 00:00 UTC NOAA

TAF SABE 252300Z 2600/2624 34010KT CAVOK TX18/2618Z TN12/2610Z
BECMG 2615/2617 VRB03KT

Example: see airport list